Time;durP1;ratioP1;P1;durP2;ratioP2;P2;SDS_P1;SDS_P2;PMS_P1;PMS_P2;Temp;Humidity;BMP_temperature;BMP_pressure;BME280_temperature;BME280_humidity;BME280_pressure;Samples;Min_cycle;Max_cycle;Signal;HPM_P1;HPM_P2
2023/06/13 00:00:45;;;;;;;3.90;3.53;;;;;;;;;;5119255;28;20227;-74
2023/06/13 00:03:13;;;;;;;4.43;3.37;;;;;;;;;;5119293;28;20255;-75
2023/06/13 00:05:45;;;;;;;4.73;3.67;;;;;;;;;;5119123;28;20229;-74
2023/06/13 00:08:17;;;;;;;6.33;3.57;;;;;;;;;;5119427;28;20236;-75
2023/06/13 00:10:46;;;;;;;3.57;3.20;;;;;;;;;;5119301;28;20209;-75
2023/06/13 00:13:17;;;;;;;3.70;3.40;;;;;;;;;;5119129;28;20608;-75
2023/06/13 00:15:50;;;;;;;4.17;3.23;;;;;;;;;;5119068;28;20269;-74
2023/06/13 00:18:19;;;;;;;3.60;3.30;;;;;;;;;;5118846;28;20203;-75
2023/06/13 00:20:47;;;;;;;4.87;3.77;;;;;;;;;;5118879;28;20291;-75
2023/06/13 00:23:16;;;;;;;6.47;3.80;;;;;;;;;;5118610;28;20225;-74
2023/06/13 00:25:44;;;;;;;4.47;4.07;;;;;;;;;;5126978;27;20219;-73
2023/06/13 00:28:12;;;;;;;6.20;4.27;;;;;;;;;;5118689;28;20218;-73
2023/06/13 00:30:40;;;;;;;4.80;4.27;;;;;;;;;;5118751;28;20209;-73
2023/06/13 00:33:10;;;;;;;4.90;4.23;;;;;;;;;;5118616;28;20205;-72
2023/06/13 00:35:38;;;;;;;6.40;4.47;;;;;;;;;;5118242;28;20236;-72
2023/06/13 00:38:07;;;;;;;4.13;3.80;;;;;;;;;;5118628;28;20221;-72
2023/06/13 00:40:35;;;;;;;4.70;4.17;;;;;;;;;;5118819;28;20211;-73
2023/06/13 00:43:03;;;;;;;3.80;3.50;;;;;;;;;;5117948;28;20286;-72
2023/06/13 00:45:33;;;;;;;4.30;3.90;;;;;;;;;;5118399;28;20685;-73
2023/06/13 00:48:03;;;;;;;4.17;3.43;;;;;;;;;;5118688;28;20664;-72
2023/06/13 00:50:34;;;;;;;4.00;3.60;;;;;;;;;;5118333;28;20296;-73
2023/06/13 00:53:03;;;;;;;8.07;3.53;;;;;;;;;;5118105;28;20264;-72
2023/06/13 00:55:32;;;;;;;4.47;3.60;;;;;;;;;;5118074;28;20232;-72
2023/06/13 00:58:06;;;;;;;4.23;3.73;;;;;;;;;;5118572;28;20201;-73
2023/06/13 01:00:35;;;;;;;4.00;3.60;;;;;;;;;;5118134;28;20448;-73
2023/06/13 01:03:07;;;;;;;3.57;3.27;;;;;;;;;;5118198;28;20204;-75
2023/06/13 01:05:37;;;;;;;5.40;3.17;;;;;;;;;;5118046;28;20224;-72
2023/06/13 01:08:07;;;;;;;4.13;3.73;;;;;;;;;;5118298;28;20204;-73
2023/06/13 01:10:36;;;;;;;4.53;3.23;;;;;;;;;;5118402;28;20291;-73
2023/06/13 01:13:08;;;;;;;6.60;3.43;;;;;;;;;;5118059;28;20296;-72
2023/06/13 01:15:39;;;;;;;3.17;2.87;;;;;;;;;;5117929;28;20664;-74
2023/06/13 01:18:09;;;;;;;6.50;3.33;;;;;;;;;;5111643;28;20206;-72
2023/06/13 01:20:39;;;;;;;4.33;2.83;;;;;;;;;;5114200;28;20284;-72
2023/06/13 01:23:17;;;;;;;3.87;2.57;;;;;;;;;;5117930;28;20243;-72
2023/06/13 01:25:52;;;;;;;3.30;3.00;;;;;;;;;;5118090;28;20222;-73
2023/06/13 01:28:22;;;;;;;3.23;2.93;;;;;;;;;;5117978;28;20204;-73
2023/06/13 01:30:51;;;;;;;3.00;2.70;;;;;;;;;;5119286;28;20204;-74
2023/06/13 01:33:20;;;;;;;3.67;2.87;;;;;;;;;;5118748;28;20549;-74
2023/06/13 01:35:48;;;;;;;3.57;3.03;;;;;;;;;;5118275;27;20613;-74
2023/06/13 01:38:17;;;;;;;4.07;2.70;;;;;;;;;;5120908;28;20196;-74
2023/06/13 01:40:45;;;;;;;5.77;2.97;;;;;;;;;;5123922;28;20204;-74
2023/06/13 01:43:24;;;;;;;3.07;2.77;;;;;;;;;;5126765;27;20201;-74
2023/06/13 01:45:56;;;;;;;3.93;2.57;;;;;;;;;;5123535;28;20223;-74
2023/06/13 01:48:30;;;;;;;3.57;3.00;;;;;;;;;;5117404;28;20204;-75
2023/06/13 01:51:04;;;;;;;3.17;2.87;;;;;;;;;;5117207;28;20207;-74
2023/06/13 01:53:39;;;;;;;3.43;2.67;;;;;;;;;;5119053;27;20288;-73
2023/06/13 01:56:11;;;;;;;3.80;2.60;;;;;;;;;;5120355;28;20220;-74
2023/06/13 01:58:45;;;;;;;4.43;2.70;;;;;;;;;;5122377;27;20250;-73
2023/06/13 02:01:13;;;;;;;4.97;2.70;;;;;;;;;;5120371;28;20299;-74
2023/06/13 02:03:42;;;;;;;4.03;2.43;;;;;;;;;;5124477;27;20197;-75
2023/06/13 02:06:10;;;;;;;3.33;2.40;;;;;;;;;;5121236;28;20227;-73
2023/06/13 02:08:38;;;;;;;5.17;2.90;;;;;;;;;;5120811;27;20535;-71
2023/06/13 02:11:06;;;;;;;5.70;2.43;;;;;;;;;;5118971;27;20287;-72
2023/06/13 02:13:34;;;;;;;5.10;2.73;;;;;;;;;;5120966;28;20213;-73
2023/06/13 02:16:04;;;;;;;4.30;2.77;;;;;;;;;;5121122;28;20317;-72
2023/06/13 02:18:32;;;;;;;2.87;2.67;;;;;;;;;;5121139;27;20204;-75
2023/06/13 02:21:01;;;;;;;3.80;2.77;;;;;;;;;;5120849;27;20208;-75
2023/06/13 02:23:29;;;;;;;5.77;2.30;;;;;;;;;;5128378;27;20205;-74
2023/06/13 02:25:57;;;;;;;4.27;2.50;;;;;;;;;;5130891;27;20716;-74
2023/06/13 02:28:25;;;;;;;2.70;2.50;;;;;;;;;;5129903;27;20602;-75
2023/06/13 02:30:54;;;;;;;4.33;2.30;;;;;;;;;;5131193;27;20194;-74
2023/06/13 02:33:24;;;;;;;3.60;2.33;;;;;;;;;;5126230;27;20196;-74
2023/06/13 02:35:53;;;;;;;2.23;2.13;;;;;;;;;;5121959;27;20224;-75
2023/06/13 02:38:21;;;;;;;3.23;2.70;;;;;;;;;;5118407;28;20201;-73
2023/06/13 02:40:53;;;;;;;2.60;2.40;;;;;;;;;;5121026;27;20732;-74
2023/06/13 02:43:23;;;;;;;2.67;2.47;;;;;;;;;;5118449;28;20197;-75
2023/06/13 02:45:52;;;;;;;3.07;2.50;;;;;;;;;;5122409;27;20235;-73
2023/06/13 02:48:22;;;;;;;4.27;2.70;;;;;;;;;;5122980;27;20280;-75
2023/06/13 02:50:53;;;;;;;2.57;2.37;;;;;;;;;;5120468;28;20682;-74
2023/06/13 02:53:21;;;;;;;4.80;2.97;;;;;;;;;;5118914;27;20230;-74
2023/06/13 02:55:52;;;;;;;4.13;2.77;;;;;;;;;;5121485;27;20299;-75
2023/06/13 02:58:22;;;;;;;4.80;2.67;;;;;;;;;;5120477;27;20203;-75
2023/06/13 03:00:51;;;;;;;3.30;2.30;;;;;;;;;;5120897;27;20602;-76
2023/06/13 03:03:23;;;;;;;2.83;2.57;;;;;;;;;;5130215;27;20223;-75
2023/06/13 03:05:56;;;;;;;3.00;2.70;;;;;;;;;;5128774;27;20243;-75
2023/06/13 03:08:25;;;;;;;3.23;2.50;;;;;;;;;;5131026;27;20251;-75
2023/06/13 03:10:53;;;;;;;5.43;3.10;;;;;;;;;;5129258;27;20198;-73
2023/06/13 03:13:22;;;;;;;3.83;2.67;;;;;;;;;;5130270;27;20198;-76
2023/06/13 03:15:51;;;;;;;4.33;2.77;;;;;;;;;;5130918;27;20219;-75
2023/06/13 03:18:20;;;;;;;3.10;2.80;;;;;;;;;;5130155;27;20229;-74
2023/06/13 03:20:49;;;;;;;3.37;2.53;;;;;;;;;;5123310;27;20834;-75
2023/06/13 03:23:20;;;;;;;3.30;2.90;;;;;;;;;;5130554;27;20289;-75
2023/06/13 03:25:49;;;;;;;4.03;2.80;;;;;;;;;;5130848;27;20227;-76
2023/06/13 03:28:17;;;;;;;3.37;2.80;;;;;;;;;;5129578;27;20208;-76
2023/06/13 03:30:45;;;;;;;4.77;3.57;;;;;;;;;;5123869;27;20235;-76
2023/06/13 03:33:13;;;;;;;3.43;2.90;;;;;;;;;;5119557;28;20222;-75
2023/06/13 03:35:42;;;;;;;3.93;3.23;;;;;;;;;;5121571;27;20283;-76
2023/06/13 03:38:10;;;;;;;3.60;3.30;;;;;;;;;;5130458;27;20555;-76
2023/06/13 03:40:40;;;;;;;5.83;3.53;;;;;;;;;;5129403;27;20205;-75
2023/06/13 03:43:10;;;;;;;6.83;3.43;;;;;;;;;;5131101;27;20211;-75
2023/06/13 03:45:38;;;;;;;4.53;3.70;;;;;;;;;;5133959;27;20222;-75
2023/06/13 03:48:06;;;;;;;4.73;3.60;;;;;;;;;;5130665;27;20196;-76
2023/06/13 03:50:35;;;;;;;7.97;3.70;;;;;;;;;;5127042;27;20199;-76
2023/06/13 03:53:03;;;;;;;3.90;3.47;;;;;;;;;;5127662;27;20257;-66
2023/06/13 03:55:33;;;;;;;7.17;3.73;;;;;;;;;;5129755;27;20713;-66
2023/06/13 03:58:02;;;;;;;5.73;4.47;;;;;;;;;;5122001;27;20225;-66
2023/06/13 04:00:32;;;;;;;5.90;4.10;;;;;;;;;;5119468;28;20225;-66
2023/06/13 04:03:01;;;;;;;8.10;4.67;;;;;;;;;;5119217;28;20205;-65
2023/06/13 04:05:31;;;;;;;7.10;5.37;;;;;;;;;;5118825;28;20282;-66
2023/06/13 04:08:00;;;;;;;6.37;5.77;;;;;;;;;;5118990;28;20211;-66
2023/06/13 04:10:28;;;;;;;9.40;6.60;;;;;;;;;;5119037;28;20215;-66
2023/06/13 04:12:56;;;;;;;11.77;7.77;;;;;;;;;;5119051;28;20210;-66
2023/06/13 04:15:26;;;;;;;9.97;8.03;;;;;;;;;;5118799;28;20270;-67
2023/06/13 04:17:55;;;;;;;14.03;9.23;;;;;;;;;;5118016;28;20230;-66
2023/06/13 04:20:24;;;;;;;18.23;10.60;;;;;;;;;;5118907;28;20292;-66
2023/06/13 04:22:54;;;;;;;11.63;9.70;;;;;;;;;;5118844;28;20574;-66
2023/06/13 04:25:22;;;;;;;13.47;10.57;;;;;;;;;;5118675;28;20242;-67
2023/06/13 04:27:53;;;;;;;10.77;9.60;;;;;;;;;;5118697;28;20285;-66
2023/06/13 04:30:21;;;;;;;11.67;9.03;;;;;;;;;;5119036;28;20209;-66
2023/06/13 04:32:50;;;;;;;14.63;9.43;;;;;;;;;;5118624;28;20231;-65
2023/06/13 04:35:22;;;;;;;16.90;8.33;;;;;;;;;;5118303;28;20613;-66
2023/06/13 04:37:51;;;;;;;10.20;8.37;;;;;;;;;;5118745;28;20280;-66
2023/06/13 04:40:23;;;;;;;10.83;8.60;;;;;;;;;;5118569;28;20726;-66
2023/06/13 04:42:54;;;;;;;10.90;8.33;;;;;;;;;;5118477;28;20721;-66
2023/06/13 04:45:22;;;;;;;9.50;7.50;;;;;;;;;;5118692;28;20224;-66
2023/06/13 04:47:57;;;;;;;9.57;7.10;;;;;;;;;;5118705;28;20203;-66
2023/06/13 04:50:26;;;;;;;10.67;7.33;;;;;;;;;;5118336;28;20206;-66
2023/06/13 04:52:54;;;;;;;8.20;7.17;;;;;;;;;;5118164;28;20245;-67
2023/06/13 04:55:23;;;;;;;9.43;7.33;;;;;;;;;;5118234;28;20300;-67
2023/06/13 04:57:51;;;;;;;8.23;7.40;;;;;;;;;;5118542;28;20227;-67
2023/06/13 05:00:19;;;;;;;9.03;7.20;;;;;;;;;;5118160;28;20229;-66
2023/06/13 05:02:48;;;;;;;9.50;6.23;;;;;;;;;;5118440;28;20237;-67
2023/06/13 05:05:18;;;;;;;8.67;6.30;;;;;;;;;;5117817;28;20227;-67
2023/06/13 05:07:47;;;;;;;8.23;6.73;;;;;;;;;;5118456;28;20286;-67
2023/06/13 05:10:16;;;;;;;7.47;6.53;;;;;;;;;;5117994;28;20211;-66
2023/06/13 05:12:46;;;;;;;12.43;6.13;;;;;;;;;;5118159;28;20204;-66
2023/06/13 05:15:16;;;;;;;8.57;6.37;;;;;;;;;;5118003;28;20246;-66
2023/06/13 05:17:48;;;;;;;7.77;6.87;;;;;;;;;;5118263;28;20317;-67
2023/06/13 05:20:16;;;;;;;12.27;7.17;;;;;;;;;;5116238;28;20681;-67
2023/06/13 05:22:46;;;;;;;9.20;7.20;;;;;;;;;;5099681;28;20199;-67
2023/06/13 05:25:15;;;;;;;7.90;6.93;;;;;;;;;;5127479;28;20229;-67
2023/06/13 05:27:43;;;;;;;9.07;6.60;;;;;;;;;;5119271;27;20693;-66
2023/06/13 05:30:11;;;;;;;11.07;8.00;;;;;;;;;;5120761;28;20297;-66
2023/06/13 05:32:40;;;;;;;13.20;8.70;;;;;;;;;;5122445;28;20224;-66
2023/06/13 05:35:09;;;;;;;10.30;7.33;;;;;;;;;;5124611;27;20209;-64
2023/06/13 05:37:37;;;;;;;9.60;7.30;;;;;;;;;;5130730;27;20222;-65
2023/06/13 05:40:09;;;;;;;12.93;8.73;;;;;;;;;;5130063;27;20213;-64
2023/06/13 05:42:45;;;;;;;13.50;8.57;;;;;;;;;;5111434;27;20231;-64
2023/06/13 05:45:13;;;;;;;11.07;8.97;;;;;;;;;;5122696;27;20227;-65
2023/06/13 05:47:50;;;;;;;13.93;9.17;;;;;;;;;;5108029;28;20198;-64
2023/06/13 05:50:18;;;;;;;11.50;8.87;;;;;;;;;;5110312;28;20664;-63
2023/06/13 05:52:46;;;;;;;11.30;9.50;;;;;;;;;;5111943;28;20608;-64
2023/06/13 05:55:16;;;;;;;11.60;9.47;;;;;;;;;;5116026;28;20235;-64
2023/06/13 05:57:45;;;;;;;10.63;8.83;;;;;;;;;;5125775;27;20262;-65
2023/06/13 06:00:14;;;;;;;13.60;8.43;;;;;;;;;;5121029;28;20205;-64
2023/06/13 06:02:44;;;;;;;12.50;9.70;;;;;;;;;;5118160;28;20251;-65
2023/06/13 06:05:13;;;;;;;11.63;9.43;;;;;;;;;;5126684;27;20308;-65
2023/06/13 06:07:42;;;;;;;13.33;9.13;;;;;;;;;;5133341;27;20240;-65
2023/06/13 06:10:11;;;;;;;11.87;9.87;;;;;;;;;;5121377;27;20206;-64
2023/06/13 06:12:41;;;;;;;10.23;9.17;;;;;;;;;;5140048;27;20611;-63
2023/06/13 06:15:09;;;;;;;12.47;9.17;;;;;;;;;;5119852;27;20574;-64
2023/06/13 06:17:37;;;;;;;12.80;9.27;;;;;;;;;;5120198;28;20203;-64
2023/06/13 06:20:07;;;;;;;12.10;9.07;;;;;;;;;;5120886;28;20237;-63
2023/06/13 06:22:36;;;;;;;10.50;9.43;;;;;;;;;;5120744;28;20249;-65
2023/06/13 06:25:05;;;;;;;14.47;9.37;;;;;;;;;;5120897;28;20209;-65
2023/06/13 06:27:33;;;;;;;12.77;9.63;;;;;;;;;;5121034;28;20234;-65
2023/06/13 06:30:04;;;;;;;12.53;9.33;;;;;;;;;;5118594;27;20634;-65
2023/06/13 06:32:32;;;;;;;12.07;9.73;;;;;;;;;;5141800;27;20237;-64
2023/06/13 06:35:03;;;;;;;12.93;9.83;;;;;;;;;;5141029;27;20210;-64
2023/06/13 06:37:32;;;;;;;10.60;9.10;;;;;;;;;;5141662;27;20209;-63
2023/06/13 06:40:00;;;;;;;16.03;10.13;;;;;;;;;;5140967;27;20313;-63
2023/06/13 06:42:28;;;;;;;14.20;9.80;;;;;;;;;;5136315;27;20240;-63
2023/06/13 06:44:56;;;;;;;13.73;10.53;;;;;;;;;;5109907;28;20214;-65
2023/06/13 06:47:26;;;;;;;12.53;9.73;;;;;;;;;;5120504;28;20290;-64
2023/06/13 06:49:54;;;;;;;15.73;10.47;;;;;;;;;;5120632;28;20217;-65
2023/06/13 06:52:22;;;;;;;17.40;10.53;;;;;;;;;;5117530;28;20663;-65
2023/06/13 06:54:50;;;;;;;12.93;10.20;;;;;;;;;;5105102;28;20223;-64
2023/06/13 06:57:18;;;;;;;15.20;11.30;;;;;;;;;;5114483;27;20682;-71
2023/06/13 06:59:50;;;;;;;14.03;10.33;;;;;;;;;;5121038;27;20587;-69
2023/06/13 07:02:18;;;;;;;11.93;10.40;;;;;;;;;;5120637;27;20207;-69
2023/06/13 07:04:48;;;;;;;11.97;9.90;;;;;;;;;;5119697;28;20218;-70
2023/06/13 07:07:16;;;;;;;13.40;9.60;;;;;;;;;;5107745;27;20238;-70
2023/06/13 07:09:45;;;;;;;12.60;9.77;;;;;;;;;;5119681;28;20202;-71
2023/06/13 07:12:13;;;;;;;11.13;9.77;;;;;;;;;;5124957;27;20288;-69
2023/06/13 07:14:42;;;;;;;16.33;8.47;;;;;;;;;;5119641;27;20670;-69
2023/06/13 07:17:11;;;;;;;10.57;9.20;;;;;;;;;;5109733;28;20564;-69
2023/06/13 07:19:39;;;;;;;12.60;10.33;;;;;;;;;;5119160;28;20228;-68
2023/06/13 07:22:09;;;;;;;13.30;10.97;;;;;;;;;;5117729;28;20568;-71
2023/06/13 07:24:37;;;;;;;13.40;11.03;;;;;;;;;;5115166;28;20209;-71
2023/06/13 07:27:07;;;;;;;14.90;11.63;;;;;;;;;;5119581;28;20251;-70
2023/06/13 07:29:36;;;;;;;15.40;10.87;;;;;;;;;;5119351;28;20565;-71
2023/06/13 07:32:05;;;;;;;14.83;12.23;;;;;;;;;;5119326;28;20210;-70
2023/06/13 07:34:33;;;;;;;14.87;13.37;;;;;;;;;;5116841;28;20206;-71
2023/06/13 07:37:17;;;;;;;14.70;13.20;;;;;;;;;;5119219;28;20206;-71
2023/06/13 07:39:59;;;;;;;16.13;12.77;;;;;;;;;;5109799;28;20216;-71
2023/06/13 07:42:27;;;;;;;17.50;13.13;;;;;;;;;;5131119;27;20245;-71
2023/06/13 07:44:56;;;;;;;15.37;12.70;;;;;;;;;;5139672;27;20242;-71
2023/06/13 07:47:24;;;;;;;17.83;13.30;;;;;;;;;;5127650;27;20248;-70
2023/06/13 07:49:53;;;;;;;16.47;13.03;;;;;;;;;;5115783;27;20206;-71
2023/06/13 07:52:23;;;;;;;13.97;12.33;;;;;;;;;;5116010;28;20201;-71
2023/06/13 07:54:51;;;;;;;15.40;13.00;;;;;;;;;;5119068;28;20269;-72
2023/06/13 07:57:20;;;;;;;14.83;13.17;;;;;;;;;;5112165;28;20216;-71
2023/06/13 07:59:51;;;;;;;13.57;12.13;;;;;;;;;;5119121;28;20228;-71
2023/06/13 08:02:34;;;;;;;14.00;12.07;;;;;;;;;;5107270;28;20201;-70
2023/06/13 08:05:17;;;;;;;15.37;12.47;;;;;;;;;;5118203;28;20332;-71
2023/06/13 08:08:00;;;;;;;13.57;12.17;;;;;;;;;;5115778;28;20734;-71
2023/06/13 08:10:42;;;;;;;18.20;11.70;;;;;;;;;;5117783;28;20570;-71
2023/06/13 08:13:24;;;;;;;17.43;11.70;;;;;;;;;;5113453;28;20286;-71
2023/06/13 08:15:52;;;;;;;11.80;10.60;;;;;;;;;;5121535;27;20228;-71
2023/06/13 08:18:22;;;;;;;16.60;11.53;;;;;;;;;;5139084;27;20260;-71
2023/06/13 08:20:50;;;;;;;14.70;11.50;;;;;;;;;;5139009;27;20233;-72
2023/06/13 08:23:20;;;;;;;12.80;10.90;;;;;;;;;;5134963;27;20204;-71
2023/06/13 08:25:48;;;;;;;14.73;11.53;;;;;;;;;;5111751;28;20215;-72
2023/06/13 08:28:17;;;;;;;15.30;12.10;;;;;;;;;;5118381;28;20258;-70
2023/06/13 08:30:46;;;;;;;20.33;13.17;;;;;;;;;;5111319;28;20288;-71
2023/06/13 08:33:14;;;;;;;19.33;12.83;;;;;;;;;;5105284;28;20218;-71
2023/06/13 08:35:42;;;;;;;15.23;12.60;;;;;;;;;;5117799;28;20226;-71
2023/06/13 08:38:11;;;;;;;15.87;12.50;;;;;;;;;;5118162;28;20692;-71
2023/06/13 08:40:41;;;;;;;12.30;10.57;;;;;;;;;;5114967;28;20300;-71
2023/06/13 08:43:10;;;;;;;11.90;10.60;;;;;;;;;;5118007;28;20219;-70
2023/06/13 08:45:38;;;;;;;11.13;10.03;;;;;;;;;;5117862;28;20273;-70
2023/06/13 08:48:08;;;;;;;16.10;13.03;;;;;;;;;;5116950;28;20227;-70
2023/06/13 08:50:37;;;;;;;15.23;11.13;;;;;;;;;;5134580;27;20243;-70
2023/06/13 08:53:06;;;;;;;10.83;9.70;;;;;;;;;;5119122;27;20254;-70
2023/06/13 08:55:36;;;;;;;14.20;12.13;;;;;;;;;;5113884;28;20723;-70
2023/06/13 08:58:10;;;;;;;14.13;11.97;;;;;;;;;;5109798;28;20293;-69
2023/06/13 09:00:40;;;;;;;14.70;11.43;;;;;;;;;;5115986;28;20311;-71
2023/06/13 09:03:12;;;;;;;12.83;11.60;;;;;;;;;;5117623;28;20237;-70
2023/06/13 09:06:01;;;;;;;14.47;10.60;;;;;;;;;;5108638;28;20299;-70
2023/06/13 09:08:29;;;;;;;12.40;11.20;;;;;;;;;;5117655;28;20206;-69
2023/06/13 09:10:59;;;;;;;12.90;11.17;;;;;;;;;;5117471;28;20198;-69
2023/06/13 09:13:31;;;;;;;12.50;9.83;;;;;;;;;;5117258;28;20233;-69
2023/06/13 09:15:59;;;;;;;11.43;9.83;;;;;;;;;;5113026;28;20228;-70
2023/06/13 09:18:28;;;;;;;15.50;10.50;;;;;;;;;;5117202;28;20298;-70
2023/06/13 09:20:57;;;;;;;13.93;10.57;;;;;;;;;;5116900;28;20246;-69
2023/06/13 09:23:26;;;;;;;11.07;8.57;;;;;;;;;;5115802;28;20226;-68
2023/06/13 09:25:56;;;;;;;9.70;8.37;;;;;;;;;;5117188;28;20227;-69
2023/06/13 09:28:28;;;;;;;9.00;7.80;;;;;;;;;;5117470;28;20625;-69
2023/06/13 09:30:58;;;;;;;9.53;7.67;;;;;;;;;;5117835;28;20208;-69
2023/06/13 09:33:26;;;;;;;9.00;8.10;;;;;;;;;;5098326;28;20664;-70
2023/06/13 09:35:54;;;;;;;17.30;9.93;;;;;;;;;;5101720;28;20221;-66
2023/06/13 09:38:24;;;;;;;95.93;24.60;;;;;;;;;;5107388;28;20211;-68
2023/06/13 09:40:53;;;;;;;10.43;7.37;;;;;;;;;;5136623;27;20273;-68
2023/06/13 09:43:21;;;;;;;9.10;6.80;;;;;;;;;;5117581;28;20208;-68
2023/06/13 09:45:50;;;;;;;11.07;7.90;;;;;;;;;;5117334;28;20279;-67
2023/06/13 09:48:20;;;;;;;11.03;7.10;;;;;;;;;;5111127;28;20204;-68
2023/06/13 09:50:49;;;;;;;8.50;7.37;;;;;;;;;;5110547;28;20569;-67
2023/06/13 09:53:18;;;;;;;10.40;7.40;;;;;;;;;;5125801;28;20254;-67
2023/06/13 09:55:47;;;;;;;8.00;7.23;;;;;;;;;;5109699;28;20276;-67
2023/06/13 09:58:16;;;;;;;7.93;5.63;;;;;;;;;;5103948;28;20667;-66
2023/06/13 10:01:00;;;;;;;6.97;6.03;;;;;;;;;;5106620;28;20316;-68
2023/06/13 10:03:30;;;;;;;9.40;5.97;;;;;;;;;;5137761;27;20240;-70
2023/06/13 10:05:58;;;;;;;7.90;5.00;;;;;;;;;;5126866;27;20276;-69
2023/06/13 10:08:27;;;;;;;5.53;4.70;;;;;;;;;;5117010;28;20213;-69
2023/06/13 10:10:55;;;;;;;6.70;5.07;;;;;;;;;;5117332;28;20206;-70
2023/06/13 10:13:25;;;;;;;6.90;4.93;;;;;;;;;;5104288;28;20229;-69
2023/06/13 10:15:55;;;;;;;5.47;4.07;;;;;;;;;;5109363;28;20240;-71
2023/06/13 10:18:28;;;;;;;5.13;4.57;;;;;;;;;;5101141;28;20210;-74
2023/06/13 10:20:59;;;;;;;4.37;3.97;;;;;;;;;;5139733;27;20292;-73
2023/06/13 10:23:28;;;;;;;6.33;4.87;;;;;;;;;;5139863;27;20292;-73
2023/06/13 10:25:59;;;;;;;4.60;3.97;;;;;;;;;;5131465;27;20225;-73
2023/06/13 10:28:39;;;;;;;6.10;4.40;;;;;;;;;;5119685;27;20564;-75
2023/06/13 10:31:13;;;;;;;6.23;4.40;;;;;;;;;;5129261;27;20200;-74
2023/06/13 10:33:54;;;;;;;5.13;4.60;;;;;;;;;;5130501;27;20237;-73
2023/06/13 10:36:28;;;;;;;6.73;4.33;;;;;;;;;;5119412;28;20231;-74
2023/06/13 10:39:20;;;;;;;9.17;3.93;;;;;;;;;;5119453;28;20260;-74
2023/06/13 10:41:54;;;;;;;4.50;3.83;;;;;;;;;;5107565;27;20304;-73
2023/06/13 10:44:24;;;;;;;4.23;3.83;;;;;;;;;;5113206;28;20236;-74
2023/06/13 10:46:53;;;;;;;3.90;3.10;;;;;;;;;;5115605;28;20223;-74
2023/06/13 10:49:21;;;;;;;5.40;3.13;;;;;;;;;;5118775;28;20212;-74
2023/06/13 10:51:55;;;;;;;3.47;3.00;;;;;;;;;;5104280;28;20274;-74
2023/06/13 10:54:25;;;;;;;5.17;3.10;;;;;;;;;;5119568;27;20694;-74
2023/06/13 10:57:00;;;;;;;5.33;3.83;;;;;;;;;;5140890;27;20228;-75
2023/06/13 10:59:30;;;;;;;4.20;3.17;;;;;;;;;;5120703;27;20203;-74
2023/06/13 11:01:58;;;;;;;4.13;3.70;;;;;;;;;;5129829;27;20222;-75
2023/06/13 11:04:29;;;;;;;4.27;3.70;;;;;;;;;;5115833;27;20204;-75
2023/06/13 11:07:11;;;;;;;3.80;3.47;;;;;;;;;;5116076;28;20302;-75
2023/06/13 11:09:41;;;;;;;6.53;4.27;;;;;;;;;;5115435;28;20956;-75
2023/06/13 11:12:09;;;;;;;5.30;3.77;;;;;;;;;;5120055;28;20204;-76
2023/06/13 11:14:38;;;;;;;4.70;3.23;;;;;;;;;;5119285;28;20200;-75
2023/06/13 11:17:06;;;;;;;6.73;3.70;;;;;;;;;;5119676;28;20303;-75
2023/06/13 11:19:35;;;;;;;3.03;2.60;;;;;;;;;;5114432;28;20276;-75
2023/06/13 11:22:08;;;;;;;4.00;3.63;;;;;;;;;;5108318;28;20263;-75
2023/06/13 11:24:36;;;;;;;4.13;2.87;;;;;;;;;;5106278;27;20194;-75
2023/06/13 11:27:09;;;;;;;3.87;3.33;;;;;;;;;;5111749;28;20695;-75
2023/06/13 11:29:38;;;;;;;3.40;3.10;;;;;;;;;;5110287;28;20197;-74
2023/06/13 11:32:08;;;;;;;3.23;2.93;;;;;;;;;;5116142;28;20196;-75
2023/06/13 11:34:40;;;;;;;3.60;3.30;;;;;;;;;;5120415;27;20563;-75
2023/06/13 11:37:11;;;;;;;5.30;2.73;;;;;;;;;;5124157;27;20221;-75
2023/06/13 11:39:41;;;;;;;3.13;2.90;;;;;;;;;;5114246;27;20635;-75
2023/06/13 11:42:21;;;;;;;3.33;2.70;;;;;;;;;;5123943;27;20710;-74
2023/06/13 11:44:50;;;;;;;3.40;3.00;;;;;;;;;;5119346;28;20201;-75
2023/06/13 11:47:18;;;;;;;2.90;2.67;;;;;;;;;;5132517;27;20201;-75
2023/06/13 11:49:56;;;;;;;15.83;13.47;;;;;;;;;;5121559;27;20212;-74
2023/06/13 11:52:24;;;;;;;7.60;6.90;;;;;;;;;;5119434;28;20213;-74
2023/06/13 11:54:54;;;;;;;3.83;3.53;;;;;;;;;;5110387;28;20305;-74
2023/06/13 11:57:24;;;;;;;3.10;2.67;;;;;;;;;;5115980;27;20205;-74
2023/06/13 11:59:58;;;;;;;3.60;2.93;;;;;;;;;;5118761;28;20653;-74
2023/06/13 12:02:28;;;;;;;3.63;3.03;;;;;;;;;;5122200;27;20584;-75
2023/06/13 12:04:57;;;;;;;4.60;2.87;;;;;;;;;;5119807;28;20241;-73
2023/06/13 12:07:25;;;;;;;3.17;2.83;;;;;;;;;;5118460;28;20238;-73
2023/06/13 12:09:53;;;;;;;2.93;2.73;;;;;;;;;;5120721;27;20635;-74
2023/06/13 12:12:23;;;;;;;3.80;2.90;;;;;;;;;;5117507;28;20610;-75
2023/06/13 12:14:54;;;;;;;2.93;2.73;;;;;;;;;;5115463;28;20201;-73
2023/06/13 12:17:23;;;;;;;4.60;2.80;;;;;;;;;;5115083;27;20194;-72
2023/06/13 12:20:06;;;;;;;2.90;2.70;;;;;;;;;;5118971;28;20201;-72
2023/06/13 12:22:34;;;;;;;3.67;2.70;;;;;;;;;;5119007;28;20261;-73
2023/06/13 12:25:02;;;;;;;2.63;2.43;;;;;;;;;;5118747;28;20240;-73
2023/06/13 12:27:33;;;;;;;4.60;2.87;;;;;;;;;;5119015;28;20234;-73
2023/06/13 12:30:09;;;;;;;2.83;2.50;;;;;;;;;;5118907;28;20285;-73
2023/06/13 12:32:38;;;;;;;3.40;2.83;;;;;;;;;;5118659;28;20668;-73
2023/06/13 12:35:06;;;;;;;4.00;2.50;;;;;;;;;;5118217;28;20236;-73
2023/06/13 12:37:37;;;;;;;2.50;2.30;;;;;;;;;;5115397;28;20208;-72
2023/06/13 12:40:10;;;;;;;3.10;2.73;;;;;;;;;;5107789;28;20208;-72
2023/06/13 12:42:42;;;;;;;2.63;2.43;;;;;;;;;;5118168;28;20221;-73
2023/06/13 12:45:11;;;;;;;2.97;2.67;;;;;;;;;;5118465;28;20670;-73
2023/06/13 12:47:39;;;;;;;3.60;2.40;;;;;;;;;;5117727;28;20212;-72
2023/06/13 12:50:08;;;;;;;2.90;2.67;;;;;;;;;;5118184;28;20579;-72
2023/06/13 12:52:38;;;;;;;3.23;2.60;;;;;;;;;;5104958;28;20225;-71
2023/06/13 12:55:06;;;;;;;3.10;2.70;;;;;;;;;;5118201;28;20293;-71
2023/06/13 12:57:35;;;;;;;2.43;2.00;;;;;;;;;;5118231;28;20238;-72
2023/06/13 13:00:10;;;;;;;2.63;2.43;;;;;;;;;;5118152;28;20649;-73
2023/06/13 13:02:39;;;;;;;2.60;2.40;;;;;;;;;;5117895;28;20234;-71
2023/06/13 13:05:08;;;;;;;2.40;2.20;;;;;;;;;;5117755;28;20215;-73
2023/06/13 13:07:36;;;;;;;5.07;3.30;;;;;;;;;;5117853;28;20570;-72
2023/06/13 13:10:06;;;;;;;2.90;2.70;;;;;;;;;;5116381;28;20210;-72
2023/06/13 13:12:34;;;;;;;2.90;2.70;;;;;;;;;;5116269;28;20693;-71
2023/06/13 13:15:02;;;;;;;2.57;2.37;;;;;;;;;;5116129;28;20742;-72
2023/06/13 13:17:32;;;;;;;12.23;3.10;;;;;;;;;;5116343;28;20252;-73
2023/06/13 13:20:00;;;;;;;4.83;2.80;;;;;;;;;;5116596;28;20207;-73
2023/06/13 13:22:28;;;;;;;3.10;2.67;;;;;;;;;;5116543;28;20282;-73
2023/06/13 13:24:56;;;;;;;2.37;2.23;;;;;;;;;;5118038;28;20207;-72
2023/06/13 13:27:24;;;;;;;2.60;2.43;;;;;;;;;;5118302;28;20201;-73
2023/06/13 13:29:52;;;;;;;2.70;2.50;;;;;;;;;;5118304;28;20207;-72
2023/06/13 13:32:21;;;;;;;2.60;2.40;;;;;;;;;;5118306;28;20207;-72
2023/06/13 13:34:50;;;;;;;5.03;2.50;;;;;;;;;;5117853;28;20745;-72
2023/06/13 13:37:19;;;;;;;2.77;2.57;;;;;;;;;;5118212;28;20208;-73
2023/06/13 13:39:47;;;;;;;2.50;2.30;;;;;;;;;;5118053;28;20212;-72
2023/06/13 13:42:15;;;;;;;2.40;2.07;;;;;;;;;;5118142;28;20228;-72
2023/06/13 13:44:53;;;;;;;2.10;2.00;;;;;;;;;;5117820;28;20684;-73
2023/06/13 13:47:21;;;;;;;2.27;2.13;;;;;;;;;;5118004;28;20205;-71
2023/06/13 13:49:51;;;;;;;3.37;2.60;;;;;;;;;;5117760;28;20206;-72
2023/06/13 13:52:19;;;;;;;3.07;2.53;;;;;;;;;;5122048;28;20207;-72
2023/06/13 13:54:47;;;;;;;2.50;2.30;;;;;;;;;;5121299;27;20233;-69
2023/06/13 13:57:15;;;;;;;3.27;2.23;;;;;;;;;;5121444;28;20216;-69
2023/06/13 13:59:44;;;;;;;2.53;2.23;;;;;;;;;;5125072;27;20207;-69
2023/06/13 14:02:12;;;;;;;2.10;1.90;;;;;;;;;;5119795;27;20216;-70
2023/06/13 14:04:41;;;;;;;2.37;2.20;;;;;;;;;;5122852;27;20206;-70
2023/06/13 14:07:10;;;;;;;3.43;2.00;;;;;;;;;;5123393;27;20229;-71
2023/06/13 14:09:38;;;;;;;1.87;1.73;;;;;;;;;;5121291;28;20203;-71
2023/06/13 14:12:07;;;;;;;2.03;1.93;;;;;;;;;;5121857;27;20199;-70
2023/06/13 14:14:35;;;;;;;2.03;1.90;;;;;;;;;;5122697;27;20198;-71
2023/06/13 14:17:04;;;;;;;1.70;1.60;;;;;;;;;;5119834;27;20275;-69
2023/06/13 14:19:34;;;;;;;2.57;2.10;;;;;;;;;;5120454;27;20204;-70
2023/06/13 14:22:03;;;;;;;2.60;2.07;;;;;;;;;;5120759;28;20211;-71
2023/06/13 14:24:32;;;;;;;2.93;1.50;;;;;;;;;;5121501;27;20607;-74
2023/06/13 14:27:00;;;;;;;1.77;1.67;;;;;;;;;;5120462;28;20218;-72
2023/06/13 14:29:29;;;;;;;1.40;1.30;;;;;;;;;;5121310;27;20292;-73
2023/06/13 14:31:58;;;;;;;2.43;2.10;;;;;;;;;;5119279;27;20239;-71
2023/06/13 14:34:28;;;;;;;1.93;1.83;;;;;;;;;;5120496;27;20571;-71
2023/06/13 14:36:57;;;;;;;1.70;1.60;;;;;;;;;;5122978;27;20216;-72
2023/06/13 14:39:25;;;;;;;1.83;1.50;;;;;;;;;;5127195;27;20248;-70
2023/06/13 14:41:55;;;;;;;2.50;1.80;;;;;;;;;;5141296;27;20259;-73
2023/06/13 14:44:23;;;;;;;4.03;1.60;;;;;;;;;;5133607;27;20696;-73
2023/06/13 14:46:51;;;;;;;1.90;1.80;;;;;;;;;;5120528;28;20278;-74
2023/06/13 14:49:19;;;;;;;1.70;1.60;;;;;;;;;;5120759;28;20215;-72
2023/06/13 14:51:47;;;;;;;2.00;1.67;;;;;;;;;;5120513;28;20253;-73